Crosby, TX (77532)

6:54 AM CDT on September 01, 2014 (GMT -0500)
Lake Shadows | Change Station
CLOSE
Current Station
Personal Weather Station
Location: Crosby, TX
Elevation: 63 ft
Nearby Weather Stations

Elev 63 ft 29.95 °N, 95.11 °W | Updated 10 minutes ago

Mostly Cloudy
Mostly Cloudy
72.3 °F
Feels Like 72.3 °F
N
0.0
Wind Variable Wind from East
Gusts 0.0 mph

Today
High -- | Low -- °F
--% Chance of Precip.
Yesterday
High -- | Low -- °F
Precip. -- in
6:57 AM 7:42 PM
Waxing Crescent, 40% visible
Pressure 29.94 in
Visibility 7.0 miles
Clouds Few 2000 ft
Scattered Clouds 25000 ft
Dew Point 71 °F
Humidity 97%
Rainfall 0.00 in
Snow Depth Not available.
UV 0 out of 12
Pollen 6.40 out of 12
Ozone Good
PM2.5 Moderate
Flu Activity Not available.
METAR KIAH 011053Z 00000KT 7SM MIFG FEW020 SCT250 24/23 A2994

More Conditions Fewer Conditions

Pressure 29.94 in
Visibility 7.0 miles
Clouds Few 2000 ft
Scattered Clouds 25000 ft
Dew Point 71 °F
Humidity 97%
Rainfall 0.00 in
Snow Depth Not available.
UV 0 out of 12
Pollen 6.40 out of 12
Ozone Good
PM2.5 Moderate
Flu Activity Not available.
METAR KIAH 011053Z 00000KT 7SM MIFG FEW020 SCT250 24/23 A2994

More Conditions Fewer Conditions

10-Day Weather Forecast

Almanac

Astronomy

Sep. 01, 2014 Rise Set
Actual Time 6:57 AM CDT 7:42 PM CDT
Civil Twilight 6:32 AM CDT 8:06 PM CDT
Nautical Twilight 6:04 AM CDT 8:35 PM CDT
Astronomical Twilight 5:34 AM CDT 9:04 PM CDT
Moon 1:14 PM CDT No Moon Set
Length of Visible Light 13h 33m
Length of Day
12h 45m
Tomorrow will be 1m 44s shorter.
Waxing Crescent, 40% of the Moon is Illuminated
Today
Waxing Crescent
Sep 2
First Quarter
Sep 8
Full
Sep 15
Last Quarter
Sep 24
New

Today's Extremes

State Highs State Lows

Community

WunderPhotos

Upload Photos

1,749,192 photos uploaded!

Nearby

Air Quality

  Air Quality AQ Index Pollutant
Yesterday Good
PM2.5
Yesterday Good
OZONE
Current Moderate
PM2.5
Current Good
OZONE
Monday Good
OZONE
Monday Good
PM10
Tuesday Good
OZONE
Tuesday Good
PM10

Snow Depth

Station Depth Elevation
No new snow has been reported.

Earthquake Activity

City Distance Mag. Time & Date
No recent earthquake activity has been reported nearby.
Minimum magnitude displayed is 2.5.

Coastal Water Temperatures

Place Temperature
Eagle Point, TX 82.0 °F
USCG Freeport, TX 82.0 °F
Galveston Pier TX 82.9 °F
Galveston Bay (North Jetty), TX 82.9 °F
Rollover Pass, TX 80.1 °F

Nearby Weather Stations